sensor_id;sensor_type;location;lat;lon;timestamp;temperature;humidity
39931;DHT22;26635;-35.248;149.138;2023-04-16T00:01:59;14.80;95.50
39931;DHT22;26635;-35.248;149.138;2023-04-16T00:04:30;14.70;94.70
39931;DHT22;26635;-35.248;149.138;2023-04-16T00:07:01;14.60;94.90
39931;DHT22;26635;-35.248;149.138;2023-04-16T00:09:32;14.50;95.30
39931;DHT22;26635;-35.248;149.138;2023-04-16T00:12:04;14.50;95.40
39931;DHT22;26635;-35.248;149.138;2023-04-16T00:14:35;14.40;95.00
39931;DHT22;26635;-35.248;149.138;2023-04-16T00:17:07;14.40;95.30
39931;DHT22;26635;-35.248;149.138;2023-04-16T00:19:39;14.40;95.50
39931;DHT22;26635;-35.248;149.138;2023-04-16T00:22:09;14.30;95.30
39931;DHT22;26635;-35.248;149.138;2023-04-16T00:24:41;14.30;95.50
39931;DHT22;26635;-35.248;149.138;2023-04-16T00:27:12;14.20;95.30
39931;DHT22;26635;-35.248;149.138;2023-04-16T00:29:43;14.20;95.10
39931;DHT22;26635;-35.248;149.138;2023-04-16T00:32:15;14.10;94.70
39931;DHT22;26635;-35.248;149.138;2023-04-16T00:34:46;14.10;94.10
39931;DHT22;26635;-35.248;149.138;2023-04-16T00:37:17;14.00;93.70
39931;DHT22;26635;-35.248;149.138;2023-04-16T00:39:48;13.90;93.80
39931;DHT22;26635;-35.248;149.138;2023-04-16T00:42:20;13.90;94.10
39931;DHT22;26635;-35.248;149.138;2023-04-16T00:44:51;13.80;94.30
39931;DHT22;26635;-35.248;149.138;2023-04-16T00:47:22;13.80;94.80
39931;DHT22;26635;-35.248;149.138;2023-04-16T00:49:55;13.70;94.00
39931;DHT22;26635;-35.248;149.138;2023-04-16T00:52:27;13.70;94.10
39931;DHT22;26635;-35.248;149.138;2023-04-16T00:54:58;13.70;94.00
39931;DHT22;26635;-35.248;149.138;2023-04-16T00:57:30;13.60;93.90
39931;DHT22;26635;-35.248;149.138;2023-04-16T01:00:03;13.60;93.70
39931;DHT22;26635;-35.248;149.138;2023-04-16T01:02:35;13.50;93.60
39931;DHT22;26635;-35.248;149.138;2023-04-16T01:05:06;13.50;94.30
39931;DHT22;26635;-35.248;149.138;2023-04-16T01:07:39;13.50;93.70
39931;DHT22;26635;-35.248;149.138;2023-04-16T01:10:10;13.40;93.80
39931;DHT22;26635;-35.248;149.138;2023-04-16T01:12:41;13.40;93.40
39931;DHT22;26635;-35.248;149.138;2023-04-16T01:15:12;13.40;95.00
39931;DHT22;26635;-35.248;149.138;2023-04-16T01:17:47;13.40;95.00
39931;DHT22;26635;-35.248;149.138;2023-04-16T01:20:18;13.40;94.80
39931;DHT22;26635;-35.248;149.138;2023-04-16T01:22:49;13.50;94.90
39931;DHT22;26635;-35.248;149.138;2023-04-16T01:25:20;13.50;95.00
39931;DHT22;26635;-35.248;149.138;2023-04-16T01:27:51;13.60;94.50
39931;DHT22;26635;-35.248;149.138;2023-04-16T01:30:23;13.60;93.30
39931;DHT22;26635;-35.248;149.138;2023-04-16T01:32:56;13.60;93.70
39931;DHT22;26635;-35.248;149.138;2023-04-16T01:35:27;13.60;93.60
39931;DHT22;26635;-35.248;149.138;2023-04-16T01:37:57;13.60;93.30
39931;DHT22;26635;-35.248;149.138;2023-04-16T01:40:28;13.50;94.20
39931;DHT22;26635;-35.248;149.138;2023-04-16T01:42:59;13.50;93.90
39931;DHT22;26635;-35.248;149.138;2023-04-16T01:45:34;13.50;94.10
39931;DHT22;26635;-35.248;149.138;2023-04-16T01:48:05;13.50;93.20
39931;DHT22;26635;-35.248;149.138;2023-04-16T01:50:36;13.50;94.20
39931;DHT22;26635;-35.248;149.138;2023-04-16T01:53:06;13.50;93.80
39931;DHT22;26635;-35.248;149.138;2023-04-16T01:55:38;13.60;93.80
39931;DHT22;26635;-35.248;149.138;2023-04-16T01:58:20;13.70;94.20
39931;DHT22;26635;-35.248;149.138;2023-04-16T02:00:52;13.80;94.80
39931;DHT22;26635;-35.248;149.138;2023-04-16T02:03:23;13.90;94.00
39931;DHT22;26635;-35.248;149.138;2023-04-16T02:05:53;14.00;92.40
39931;DHT22;26635;-35.248;149.138;2023-04-16T02:08:28;14.00;93.30
39931;DHT22;26635;-35.248;149.138;2023-04-16T02:11:00;14.00;93.00
39931;DHT22;26635;-35.248;149.138;2023-04-16T02:13:39;14.00;92.20
39931;DHT22;26635;-35.248;149.138;2023-04-16T02:16:13;13.90;92.30
39931;DHT22;26635;-35.248;149.138;2023-04-16T02:18:47;13.90;92.20
39931;DHT22;26635;-35.248;149.138;2023-04-16T02:21:19;14.00;92.30
39931;DHT22;26635;-35.248;149.138;2023-04-16T02:23:51;14.00;93.40
39931;DHT22;26635;-35.248;149.138;2023-04-16T02:26:25;14.20;92.60
39931;DHT22;26635;-35.248;149.138;2023-04-16T02:28:55;14.40;92.50
39931;DHT22;26635;-35.248;149.138;2023-04-16T02:31:27;14.50;90.70
39931;DHT22;26635;-35.248;149.138;2023-04-16T02:33:58;14.50;91.10
39931;DHT22;26635;-35.248;149.138;2023-04-16T02:36:32;14.60;90.90
39931;DHT22;26635;-35.248;149.138;2023-04-16T02:39:04;14.70;91.00
39931;DHT22;26635;-35.248;149.138;2023-04-16T02:41:40;14.90;91.40
39931;DHT22;26635;-35.248;149.138;2023-04-16T02:44:16;15.00;90.80
39931;DHT22;26635;-35.248;149.138;2023-04-16T02:46:47;15.10;88.10
39931;DHT22;26635;-35.248;149.138;2023-04-16T02:49:19;15.20;88.50
39931;DHT22;26635;-35.248;149.138;2023-04-16T02:51:50;15.10;86.80
39931;DHT22;26635;-35.248;149.138;2023-04-16T02:54:24;15.00;86.40
39931;DHT22;26635;-35.248;149.138;2023-04-16T02:56:55;14.90;86.10
39931;DHT22;26635;-35.248;149.138;2023-04-16T02:59:32;14.90;87.80
39931;DHT22;26635;-35.248;149.138;2023-04-16T03:02:04;15.00;86.90
39931;DHT22;26635;-35.248;149.138;2023-04-16T03:04:35;15.20;87.30
39931;DHT22;26635;-35.248;149.138;2023-04-16T03:07:06;15.30;84.60
39931;DHT22;26635;-35.248;149.138;2023-04-16T03:09:40;15.40;86.60
39931;DHT22;26635;-35.248;149.138;2023-04-16T03:12:23;15.50;85.70
39931;DHT22;26635;-35.248;149.138;2023-04-16T03:14:58;15.50;82.80
39931;DHT22;26635;-35.248;149.138;2023-04-16T03:17:28;15.60;84.70
39931;DHT22;26635;-35.248;149.138;2023-04-16T03:19:59;15.70;83.10
39931;DHT22;26635;-35.248;149.138;2023-04-16T03:22:29;15.70;83.00
39931;DHT22;26635;-35.248;149.138;2023-04-16T03:25:01;15.80;81.30
39931;DHT22;26635;-35.248;149.138;2023-04-16T03:27:37;15.90;81.90
39931;DHT22;26635;-35.248;149.138;2023-04-16T03:30:13;15.90;78.90
39931;DHT22;26635;-35.248;149.138;2023-04-16T03:32:50;15.90;79.30
39931;DHT22;26635;-35.248;149.138;2023-04-16T03:35:24;15.90;77.60
39931;DHT22;26635;-35.248;149.138;2023-04-16T03:37:56;15.90;79.10
39931;DHT22;26635;-35.248;149.138;2023-04-16T03:40:28;15.90;77.10
39931;DHT22;26635;-35.248;149.138;2023-04-16T03:43:07;15.90;75.30
39931;DHT22;26635;-35.248;149.138;2023-04-16T03:45:45;15.90;77.80
39931;DHT22;26635;-35.248;149.138;2023-04-16T03:48:17;16.00;77.00
39931;DHT22;26635;-35.248;149.138;2023-04-16T03:50:51;16.00;75.70
39931;DHT22;26635;-35.248;149.138;2023-04-16T03:53:23;16.00;75.90
39931;DHT22;26635;-35.248;149.138;2023-04-16T03:55:56;16.10;77.50
39931;DHT22;26635;-35.248;149.138;2023-04-16T03:58:29;16.20;75.60
39931;DHT22;26635;-35.248;149.138;2023-04-16T04:01:04;16.20;75.50
39931;DHT22;26635;-35.248;149.138;2023-04-16T04:03:46;16.20;76.40
39931;DHT22;26635;-35.248;149.138;2023-04-16T04:06:18;16.10;74.80
39931;DHT22;26635;-35.248;149.138;2023-04-16T04:08:50;16.10;78.10
39931;DHT22;26635;-35.248;149.138;2023-04-16T04:11:25;16.00;75.70
39931;DHT22;26635;-35.248;149.138;2023-04-16T04:13:57;16.00;77.70
39931;DHT22;26635;-35.248;149.138;2023-04-16T04:16:31;15.90;78.10
39931;DHT22;26635;-35.248;149.138;2023-04-16T04:19:01;15.80;77.60
39931;DHT22;26635;-35.248;149.138;2023-04-16T04:21:32;15.70;79.30
39931;DHT22;26635;-35.248;149.138;2023-04-16T04:24:10;15.50;80.50
39931;DHT22;26635;-35.248;149.138;2023-04-16T04:26:47;15.40;78.00
39931;DHT22;26635;-35.248;149.138;2023-04-16T04:29:18;15.50;78.30
39931;DHT22;26635;-35.248;149.138;2023-04-16T04:31:49;15.50;79.10
39931;DHT22;26635;-35.248;149.138;2023-04-16T04:34:21;15.60;79.00
39931;DHT22;26635;-35.248;149.138;2023-04-16T04:36:52;15.70;78.80
39931;DHT22;26635;-35.248;149.138;2023-04-16T04:39:25;15.70;75.60
39931;DHT22;26635;-35.248;149.138;2023-04-16T04:41:58;15.80;75.30
39931;DHT22;26635;-35.248;149.138;2023-04-16T04:44:36;15.80;76.60
39931;DHT22;26635;-35.248;149.138;2023-04-16T04:47:07;15.70;75.90
39931;DHT22;26635;-35.248;149.138;2023-04-16T04:49:42;15.70;74.30
39931;DHT22;26635;-35.248;149.138;2023-04-16T04:52:16;15.60;74.40
39931;DHT22;26635;-35.248;149.138;2023-04-16T04:54:49;15.70;76.90
39931;DHT22;26635;-35.248;149.138;2023-04-16T04:57:23;15.80;75.60
39931;DHT22;26635;-35.248;149.138;2023-04-16T04:59:55;15.80;74.80
39931;DHT22;26635;-35.248;149.138;2023-04-16T05:02:27;15.70;75.20
39931;DHT22;26635;-35.248;149.138;2023-04-16T05:04:59;15.70;77.20
39931;DHT22;26635;-35.248;149.138;2023-04-16T05:07:29;15.60;76.40
39931;DHT22;26635;-35.248;149.138;2023-04-16T05:10:01;15.50;78.40
39931;DHT22;26635;-35.248;149.138;2023-04-16T05:12:34;15.50;77.90
39931;DHT22;26635;-35.248;149.138;2023-04-16T05:15:06;15.40;78.60
39931;DHT22;26635;-35.248;149.138;2023-04-16T05:17:37;15.50;76.50
39931;DHT22;26635;-35.248;149.138;2023-04-16T05:20:09;15.50;79.60
39931;DHT22;26635;-35.248;149.138;2023-04-16T05:22:40;15.50;78.80
39931;DHT22;26635;-35.248;149.138;2023-04-16T05:25:12;15.50;77.90
39931;DHT22;26635;-35.248;149.138;2023-04-16T05:27:43;15.50;79.00
39931;DHT22;26635;-35.248;149.138;2023-04-16T05:30:15;15.50;77.50
39931;DHT22;26635;-35.248;149.138;2023-04-16T05:32:45;15.40;77.50
39931;DHT22;26635;-35.248;149.138;2023-04-16T05:35:16;15.30;78.80
39931;DHT22;26635;-35.248;149.138;2023-04-16T05:37:47;15.20;78.80
39931;DHT22;26635;-35.248;149.138;2023-04-16T05:40:18;15.20;79.00
39931;DHT22;26635;-35.248;149.138;2023-04-16T05:42:49;15.10;79.10
39931;DHT22;26635;-35.248;149.138;2023-04-16T05:45:20;15.00;79.10
39931;DHT22;26635;-35.248;149.138;2023-04-16T05:47:52;14.80;80.30
39931;DHT22;26635;-35.248;149.138;2023-04-16T05:50:23;14.80;79.90
39931;DHT22;26635;-35.248;149.138;2023-04-16T05:52:56;14.80;77.80
39931;DHT22;26635;-35.248;149.138;2023-04-16T05:55:27;14.70;77.50
39931;DHT22;26635;-35.248;149.138;2023-04-16T05:57:59;14.70;75.20
39931;DHT22;26635;-35.248;149.138;2023-04-16T06:00:33;14.70;78.50
39931;DHT22;26635;-35.248;149.138;2023-04-16T06:03:04;14.70;78.00
39931;DHT22;26635;-35.248;149.138;2023-04-16T06:05:37;14.80;78.30
39931;DHT22;26635;-35.248;149.138;2023-04-16T06:08:08;14.80;77.10
39931;DHT22;26635;-35.248;149.138;2023-04-16T06:10:39;14.70;78.80
39931;DHT22;26635;-35.248;149.138;2023-04-16T06:13:10;14.80;78.30
39931;DHT22;26635;-35.248;149.138;2023-04-16T06:15:41;14.70;77.40
39931;DHT22;26635;-35.248;149.138;2023-04-16T06:18:15;14.70;78.90
39931;DHT22;26635;-35.248;149.138;2023-04-16T06:21:20;14.60;79.10
39931;DHT22;26635;-35.248;149.138;2023-04-16T06:23:50;14.60;79.60
39931;DHT22;26635;-35.248;149.138;2023-04-16T06:26:21;14.60;78.70
39931;DHT22;26635;-35.248;149.138;2023-04-16T06:28:51;14.50;81.00
39931;DHT22;26635;-35.248;149.138;2023-04-16T06:31:23;14.50;79.10
39931;DHT22;26635;-35.248;149.138;2023-04-16T06:33:59;14.50;79.70
39931;DHT22;26635;-35.248;149.138;2023-04-16T06:36:30;14.40;81.10
39931;DHT22;26635;-35.248;149.138;2023-04-16T06:39:00;14.40;80.30
39931;DHT22;26635;-35.248;149.138;2023-04-16T06:41:46;14.40;79.80
39931;DHT22;26635;-35.248;149.138;2023-04-16T06:44:18;14.40;80.70
39931;DHT22;26635;-35.248;149.138;2023-04-16T06:46:50;14.40;82.00
39931;DHT22;26635;-35.248;149.138;2023-04-16T06:49:24;14.40;81.30
39931;DHT22;26635;-35.248;149.138;2023-04-16T06:51:59;14.50;82.20
39931;DHT22;26635;-35.248;149.138;2023-04-16T06:54:36;14.50;83.20
39931;DHT22;26635;-35.248;149.138;2023-04-16T06:57:07;14.40;84.90
39931;DHT22;26635;-35.248;149.138;2023-04-16T06:59:50;14.40;84.50
39931;DHT22;26635;-35.248;149.138;2023-04-16T07:02:22;14.40;84.80
39931;DHT22;26635;-35.248;149.138;2023-04-16T07:04:57;14.40;85.00
39931;DHT22;26635;-35.248;149.138;2023-04-16T07:07:30;14.40;83.80
39931;DHT22;26635;-35.248;149.138;2023-04-16T07:10:04;14.40;83.80
39931;DHT22;26635;-35.248;149.138;2023-04-16T07:12:36;14.30;85.40
39931;DHT22;26635;-35.248;149.138;2023-04-16T07:15:13;14.30;84.30
39931;DHT22;26635;-35.248;149.138;2023-04-16T07:17:43;14.30;85.10
39931;DHT22;26635;-35.248;149.138;2023-04-16T07:20:15;14.20;84.80
39931;DHT22;26635;-35.248;149.138;2023-04-16T07:22:50;14.20;85.70
39931;DHT22;26635;-35.248;149.138;2023-04-16T07:25:26;14.20;85.40
39931;DHT22;26635;-35.248;149.138;2023-04-16T07:27:57;14.10;85.90
39931;DHT22;26635;-35.248;149.138;2023-04-16T07:30:28;14.10;85.80
39931;DHT22;26635;-35.248;149.138;2023-04-16T07:33:05;14.10;86.20
39931;DHT22;26635;-35.248;149.138;2023-04-16T07:35:36;14.10;86.40
39931;DHT22;26635;-35.248;149.138;2023-04-16T07:38:12;14.00;86.40
39931;DHT22;26635;-35.248;149.138;2023-04-16T07:40:52;14.00;86.30
39931;DHT22;26635;-35.248;149.138;2023-04-16T07:43:28;14.00;86.20
39931;DHT22;26635;-35.248;149.138;2023-04-16T07:46:11;13.90;86.60
39931;DHT22;26635;-35.248;149.138;2023-04-16T07:48:42;13.90;88.30
39931;DHT22;26635;-35.248;149.138;2023-04-16T07:51:13;13.90;87.30
39931;DHT22;26635;-35.248;149.138;2023-04-16T07:53:44;13.90;87.50
39931;DHT22;26635;-35.248;149.138;2023-04-16T07:56:18;13.90;86.90
39931;DHT22;26635;-35.248;149.138;2023-04-16T07:58:52;13.90;87.20
39931;DHT22;26635;-35.248;149.138;2023-04-16T08:01:22;13.80;87.70
39931;DHT22;26635;-35.248;149.138;2023-04-16T08:03:54;13.80;87.60
39931;DHT22;26635;-35.248;149.138;2023-04-16T08:06:26;13.70;88.90
39931;DHT22;26635;-35.248;149.138;2023-04-16T08:08:59;13.70;88.80
39931;DHT22;26635;-35.248;149.138;2023-04-16T08:11:30;13.60;89.00
39931;DHT22;26635;-35.248;149.138;2023-04-16T08:14:05;13.60;89.20
39931;DHT22;26635;-35.248;149.138;2023-04-16T08:16:37;13.50;89.20
39931;DHT22;26635;-35.248;149.138;2023-04-16T08:19:09;13.50;89.30
39931;DHT22;26635;-35.248;149.138;2023-04-16T08:21:44;13.50;89.20
39931;DHT22;26635;-35.248;149.138;2023-04-16T08:24:16;13.40;88.50
39931;DHT22;26635;-35.248;149.138;2023-04-16T08:26:51;13.40;88.60
39931;DHT22;26635;-35.248;149.138;2023-04-16T08:29:44;13.40;88.10
39931;DHT22;26635;-35.248;149.138;2023-04-16T08:32:24;13.30;88.10
39931;DHT22;26635;-35.248;149.138;2023-04-16T08:34:59;13.30;87.40
39931;DHT22;26635;-35.248;149.138;2023-04-16T08:37:34;13.30;87.70
39931;DHT22;26635;-35.248;149.138;2023-04-16T08:40:10;13.20;87.90
39931;DHT22;26635;-35.248;149.138;2023-04-16T08:42:57;13.20;88.10
39931;DHT22;26635;-35.248;149.138;2023-04-16T08:45:55;13.20;87.90
39931;DHT22;26635;-35.248;149.138;2023-04-16T08:48:37;13.20;87.90
39931;DHT22;26635;-35.248;149.138;2023-04-16T08:51:13;13.20;89.00
39931;DHT22;26635;-35.248;149.138;2023-04-16T08:53:55;13.10;89.30
39931;DHT22;26635;-35.248;149.138;2023-04-16T08:56:36;13.10;89.40
39931;DHT22;26635;-35.248;149.138;2023-04-16T08:59:16;13.00;89.70
39931;DHT22;26635;-35.248;149.138;2023-04-16T09:01:57;13.00;90.30
39931;DHT22;26635;-35.248;149.138;2023-04-16T09:04:36;12.90;90.20
39931;DHT22;26635;-35.248;149.138;2023-04-16T09:07:15;12.90;90.20
39931;DHT22;26635;-35.248;149.138;2023-04-16T09:09:53;12.90;90.20
39931;DHT22;26635;-35.248;149.138;2023-04-16T09:13:03;13.00;90.10
39931;DHT22;26635;-35.248;149.138;2023-04-16T09:15:46;12.90;90.10
39931;DHT22;26635;-35.248;149.138;2023-04-16T09:18:29;13.00;90.20
39931;DHT22;26635;-35.248;149.138;2023-04-16T09:21:09;13.00;89.50
39931;DHT22;26635;-35.248;149.138;2023-04-16T09:23:51;12.90;89.10
39931;DHT22;26635;-35.248;149.138;2023-04-16T09:26:27;13.00;89.00
39931;DHT22;26635;-35.248;149.138;2023-04-16T09:29:04;13.00;89.90
39931;DHT22;26635;-35.248;149.138;2023-04-16T09:31:37;13.00;88.50
39931;DHT22;26635;-35.248;149.138;2023-04-16T09:34:14;12.90;88.60
39931;DHT22;26635;-35.248;149.138;2023-04-16T09:36:46;12.90;89.30
39931;DHT22;26635;-35.248;149.138;2023-04-16T09:39:22;12.80;88.80
39931;DHT22;26635;-35.248;149.138;2023-04-16T09:41:53;12.80;90.10
39931;DHT22;26635;-35.248;149.138;2023-04-16T09:44:34;12.80;90.00
39931;DHT22;26635;-35.248;149.138;2023-04-16T09:47:12;12.70;90.00
39931;DHT22;26635;-35.248;149.138;2023-04-16T09:49:45;12.70;90.40
39931;DHT22;26635;-35.248;149.138;2023-04-16T09:52:21;12.70;90.60
39931;DHT22;26635;-35.248;149.138;2023-04-16T09:55:04;12.70;90.30
39931;DHT22;26635;-35.248;149.138;2023-04-16T09:57:40;12.60;90.40
39931;DHT22;26635;-35.248;149.138;2023-04-16T10:00:11;12.60;90.30
39931;DHT22;26635;-35.248;149.138;2023-04-16T10:02:43;12.60;90.30
39931;DHT22;26635;-35.248;149.138;2023-04-16T10:05:21;12.50;90.00
39931;DHT22;26635;-35.248;149.138;2023-04-16T10:08:00;12.40;90.30
39931;DHT22;26635;-35.248;149.138;2023-04-16T10:10:35;12.40;90.40
39931;DHT22;26635;-35.248;149.138;2023-04-16T10:13:07;12.40;90.70
39931;DHT22;26635;-35.248;149.138;2023-04-16T10:15:38;12.30;90.70
39931;DHT22;26635;-35.248;149.138;2023-04-16T10:18:18;12.20;91.00
39931;DHT22;26635;-35.248;149.138;2023-04-16T10:20:50;12.20;90.80
39931;DHT22;26635;-35.248;149.138;2023-04-16T10:23:22;12.20;91.00
39931;DHT22;26635;-35.248;149.138;2023-04-16T10:25:55;12.10;91.00
39931;DHT22;26635;-35.248;149.138;2023-04-16T10:28:29;12.00;91.30
39931;DHT22;26635;-35.248;149.138;2023-04-16T10:31:07;12.00;91.10
39931;DHT22;26635;-35.248;149.138;2023-04-16T10:33:43;12.00;91.30
39931;DHT22;26635;-35.248;149.138;2023-04-16T10:36:24;11.90;91.20
39931;DHT22;26635;-35.248;149.138;2023-04-16T10:39:23;11.90;92.10
39931;DHT22;26635;-35.248;149.138;2023-04-16T10:42:12;11.90;91.70
39931;DHT22;26635;-35.248;149.138;2023-04-16T10:44:45;11.80;92.20
39931;DHT22;26635;-35.248;149.138;2023-04-16T10:47:24;11.80;91.90
39931;DHT22;26635;-35.248;149.138;2023-04-16T10:49:56;11.80;91.80
39931;DHT22;26635;-35.248;149.138;2023-04-16T10:52:28;11.80;91.60
39931;DHT22;26635;-35.248;149.138;2023-04-16T10:55:00;11.80;91.30
39931;DHT22;26635;-35.248;149.138;2023-04-16T10:57:36;11.80;91.40
39931;DHT22;26635;-35.248;149.138;2023-04-16T11:00:24;11.70;91.40
39931;DHT22;26635;-35.248;149.138;2023-04-16T11:02:55;11.60;91.80
39931;DHT22;26635;-35.248;149.138;2023-04-16T11:05:46;11.60;92.40
39931;DHT22;26635;-35.248;149.138;2023-04-16T11:08:23;11.60;91.90
39931;DHT22;26635;-35.248;149.138;2023-04-16T11:10:56;11.60;92.00
39931;DHT22;26635;-35.248;149.138;2023-04-16T11:13:27;11.60;92.40
39931;DHT22;26635;-35.248;149.138;2023-04-16T11:16:07;11.60;92.20
39931;DHT22;26635;-35.248;149.138;2023-04-16T11:18:39;11.60;92.20
39931;DHT22;26635;-35.248;149.138;2023-04-16T11:21:17;11.50;91.90
39931;DHT22;26635;-35.248;149.138;2023-04-16T11:23:50;11.50;92.10
39931;DHT22;26635;-35.248;149.138;2023-04-16T11:26:26;11.50;92.30
39931;DHT22;26635;-35.248;149.138;2023-04-16T11:28:59;11.60;92.70
39931;DHT22;26635;-35.248;149.138;2023-04-16T11:31:30;11.50;92.60
39931;DHT22;26635;-35.248;149.138;2023-04-16T11:34:06;11.60;92.50
39931;DHT22;26635;-35.248;149.138;2023-04-16T11:36:44;11.60;92.50
39931;DHT22;26635;-35.248;149.138;2023-04-16T11:39:15;11.60;92.10
39931;DHT22;26635;-35.248;149.138;2023-04-16T11:41:49;11.60;92.30
39931;DHT22;26635;-35.248;149.138;2023-04-16T11:44:25;11.60;92.70
39931;DHT22;26635;-35.248;149.138;2023-04-16T11:46:56;11.60;92.80
39931;DHT22;26635;-35.248;149.138;2023-04-16T11:49:29;11.60;92.80
39931;DHT22;26635;-35.248;149.138;2023-04-16T11:52:00;11.60;92.60
39931;DHT22;26635;-35.248;149.138;2023-04-16T11:54:34;11.60;92.70
39931;DHT22;26635;-35.248;149.138;2023-04-16T11:57:06;11.60;92.70
39931;DHT22;26635;-35.248;149.138;2023-04-16T11:59:50;11.60;92.90
39931;DHT22;26635;-35.248;149.138;2023-04-16T12:02:35;11.60;92.90
39931;DHT22;26635;-35.248;149.138;2023-04-16T12:05:32;11.60;93.00
39931;DHT22;26635;-35.248;149.138;2023-04-16T12:08:05;11.50;93.10
39931;DHT22;26635;-35.248;149.138;2023-04-16T12:10:54;11.50;93.00
39931;DHT22;26635;-35.248;149.138;2023-04-16T12:13:29;11.50;92.70
39931;DHT22;26635;-35.248;149.138;2023-04-16T12:16:18;11.50;93.00
39931;DHT22;26635;-35.248;149.138;2023-04-16T12:19:03;11.50;93.30
39931;DHT22;26635;-35.248;149.138;2023-04-16T12:21:48;11.50;92.50
39931;DHT22;26635;-35.248;149.138;2023-04-16T12:24:24;11.50;92.00
39931;DHT22;26635;-35.248;149.138;2023-04-16T12:26:57;11.50;92.30
39931;DHT22;26635;-35.248;149.138;2023-04-16T12:29:35;11.40;93.00
39931;DHT22;26635;-35.248;149.138;2023-04-16T12:32:23;11.30;92.10
39931;DHT22;26635;-35.248;149.138;2023-04-16T12:34:53;11.20;92.50
39931;DHT22;26635;-35.248;149.138;2023-04-16T12:37:24;11.20;93.40
39931;DHT22;26635;-35.248;149.138;2023-04-16T12:39:56;11.20;92.50
39931;DHT22;26635;-35.248;149.138;2023-04-16T12:42:27;11.20;92.80
39931;DHT22;26635;-35.248;149.138;2023-04-16T12:45:08;11.20;92.50
39931;DHT22;26635;-35.248;149.138;2023-04-16T12:47:38;11.10;92.40
39931;DHT22;26635;-35.248;149.138;2023-04-16T12:50:11;11.10;92.40
39931;DHT22;26635;-35.248;149.138;2023-04-16T12:52:44;11.10;92.30
39931;DHT22;26635;-35.248;149.138;2023-04-16T12:55:16;11.10;92.40
39931;DHT22;26635;-35.248;149.138;2023-04-16T12:57:51;11.10;92.40
39931;DHT22;26635;-35.248;149.138;2023-04-16T13:00:21;11.00;92.50
39931;DHT22;26635;-35.248;149.138;2023-04-16T13:02:52;10.90;92.80
39931;DHT22;26635;-35.248;149.138;2023-04-16T13:05:24;10.90;92.40
39931;DHT22;26635;-35.248;149.138;2023-04-16T13:07:55;10.80;93.10
39931;DHT22;26635;-35.248;149.138;2023-04-16T13:10:29;10.80;93.30
39931;DHT22;26635;-35.248;149.138;2023-04-16T13:12:59;10.80;93.80
39931;DHT22;26635;-35.248;149.138;2023-04-16T13:15:44;10.80;93.70
39931;DHT22;26635;-35.248;149.138;2023-04-16T13:18:16;10.90;93.10
39931;DHT22;26635;-35.248;149.138;2023-04-16T13:20:46;10.80;93.20
39931;DHT22;26635;-35.248;149.138;2023-04-16T13:23:21;10.80;93.30
39931;DHT22;26635;-35.248;149.138;2023-04-16T13:25:52;10.80;93.10
39931;DHT22;26635;-35.248;149.138;2023-04-16T13:28:23;10.80;92.60
39931;DHT22;26635;-35.248;149.138;2023-04-16T13:30:53;10.80;92.40
39931;DHT22;26635;-35.248;149.138;2023-04-16T13:33:25;10.70;92.40
39931;DHT22;26635;-35.248;149.138;2023-04-16T13:36:11;10.70;93.10
39931;DHT22;26635;-35.248;149.138;2023-04-16T13:38:41;10.60;93.10
39931;DHT22;26635;-35.248;149.138;2023-04-16T13:41:11;10.60;92.60
39931;DHT22;26635;-35.248;149.138;2023-04-16T13:43:42;10.50;92.70
39931;DHT22;26635;-35.248;149.138;2023-04-16T13:46:12;10.50;93.00
39931;DHT22;26635;-35.248;149.138;2023-04-16T13:48:43;10.50;93.00
39931;DHT22;26635;-35.248;149.138;2023-04-16T13:51:17;10.50;93.10
39931;DHT22;26635;-35.248;149.138;2023-04-16T13:53:50;10.40;93.00
39931;DHT22;26635;-35.248;149.138;2023-04-16T13:56:21;10.40;92.80
39931;DHT22;26635;-35.248;149.138;2023-04-16T13:58:52;10.40;93.00
39931;DHT22;26635;-35.248;149.138;2023-04-16T14:01:23;10.30;93.00
39931;DHT22;26635;-35.248;149.138;2023-04-16T14:03:53;10.30;93.00
39931;DHT22;26635;-35.248;149.138;2023-04-16T14:06:23;10.20;93.40
39931;DHT22;26635;-35.248;149.138;2023-04-16T14:08:57;10.10;93.20
39931;DHT22;26635;-35.248;149.138;2023-04-16T14:11:27;10.10;93.20
39931;DHT22;26635;-35.248;149.138;2023-04-16T14:13:58;10.20;93.10
39931;DHT22;26635;-35.248;149.138;2023-04-16T14:16:29;10.20;93.00
39931;DHT22;26635;-35.248;149.138;2023-04-16T14:18:59;10.20;93.00
39931;DHT22;26635;-35.248;149.138;2023-04-16T14:21:30;10.10;92.90
39931;DHT22;26635;-35.248;149.138;2023-04-16T14:24:03;10.10;93.10
39931;DHT22;26635;-35.248;149.138;2023-04-16T14:26:36;10.00;93.10
39931;DHT22;26635;-35.248;149.138;2023-04-16T14:29:06;10.00;93.40
39931;DHT22;26635;-35.248;149.138;2023-04-16T14:31:38;9.90;93.30
39931;DHT22;26635;-35.248;149.138;2023-04-16T14:34:13;9.90;94.20
39931;DHT22;26635;-35.248;149.138;2023-04-16T14:36:51;9.90;93.50
39931;DHT22;26635;-35.248;149.138;2023-04-16T14:39:21;9.90;94.00
39931;DHT22;26635;-35.248;149.138;2023-04-16T14:41:53;9.90;93.10
39931;DHT22;26635;-35.248;149.138;2023-04-16T14:44:23;9.90;93.20
39931;DHT22;26635;-35.248;149.138;2023-04-16T14:46:54;9.90;93.00
39931;DHT22;26635;-35.248;149.138;2023-04-16T14:49:25;9.80;93.10
39931;DHT22;26635;-35.248;149.138;2023-04-16T14:51:55;9.80;92.90
39931;DHT22;26635;-35.248;149.138;2023-04-16T14:54:25;9.80;93.10
39931;DHT22;26635;-35.248;149.138;2023-04-16T14:57:02;9.80;93.30
39931;DHT22;26635;-35.248;149.138;2023-04-16T14:59:33;9.80;93.30
39931;DHT22;26635;-35.248;149.138;2023-04-16T15:02:06;9.70;93.30
39931;DHT22;26635;-35.248;149.138;2023-04-16T15:04:38;9.70;93.60
39931;DHT22;26635;-35.248;149.138;2023-04-16T15:07:09;9.60;93.50
39931;DHT22;26635;-35.248;149.138;2023-04-16T15:09:40;9.60;93.40
39931;DHT22;26635;-35.248;149.138;2023-04-16T15:12:11;9.60;92.80
39931;DHT22;26635;-35.248;149.138;2023-04-16T15:14:41;9.60;93.20
39931;DHT22;26635;-35.248;149.138;2023-04-16T15:17:12;9.50;93.10
39931;DHT22;26635;-35.248;149.138;2023-04-16T15:19:43;9.40;93.30
39931;DHT22;26635;-35.248;149.138;2023-04-16T15:22:13;9.40;93.00
39931;DHT22;26635;-35.248;149.138;2023-04-16T15:24:44;9.40;93.40
39931;DHT22;26635;-35.248;149.138;2023-04-16T15:27:15;9.30;93.50
39931;DHT22;26635;-35.248;149.138;2023-04-16T15:29:49;9.30;93.80